createdAt,value
2023-04-02T00:00:03.995Z,68.50
2023-04-02T00:05:20.694Z,68.50
2023-04-02T00:10:26.410Z,68.30
2023-04-02T00:15:28.612Z,68.50
2023-04-02T00:20:32.748Z,68.30
2023-04-02T00:25:36.703Z,68.20
2023-04-02T00:30:38.535Z,68.30
2023-04-02T00:35:40.349Z,68.20
2023-04-02T00:40:42.396Z,68.30
2023-04-02T00:45:50.910Z,68.10
2023-04-02T00:50:53.500Z,68.10
2023-04-02T00:55:57.405Z,68.00
2023-04-02T01:00:59.488Z,68.00
2023-04-02T01:06:14.234Z,68.90
2023-04-02T01:11:28.419Z,67.80
2023-04-02T01:16:30.033Z,67.80
2023-04-02T01:21:31.633Z,67.70
2023-04-02T01:26:46.708Z,67.60
2023-04-02T01:31:49.455Z,67.50
2023-04-02T01:37:09.774Z,67.50
2023-04-02T01:42:20.103Z,67.50
2023-04-02T01:47:27.406Z,67.50
2023-04-02T01:52:37.673Z,67.40
2023-04-02T01:57:42.154Z,67.40
2023-04-02T02:02:46.801Z,67.40
2023-04-02T02:07:49.363Z,67.40
2023-04-02T02:12:52.234Z,67.40
2023-04-02T02:18:02.441Z,67.40
2023-04-02T02:23:04.831Z,67.30
2023-04-02T02:28:42.073Z,67.40
2023-04-02T02:33:46.900Z,67.30
2023-04-02T02:39:05.097Z,67.30
2023-04-02T02:44:13.661Z,67.10
2023-04-02T02:49:18.022Z,67.10
2023-04-02T02:54:20.102Z,66.90
2023-04-02T02:59:22.809Z,66.80
2023-04-02T03:04:25.026Z,66.80
2023-04-02T03:09:47.127Z,66.80
2023-04-02T03:14:54.116Z,66.60
2023-04-02T03:20:02.036Z,66.50
2023-04-02T03:25:25.389Z,66.50
2023-04-02T03:30:33.302Z,66.40
2023-04-02T03:35:41.254Z,66.40
2023-04-02T03:41:03.129Z,66.30
2023-04-02T05:04:17.973Z,65.10
2023-04-02T05:09:27.266Z,65.00
2023-04-02T05:14:42.309Z,65.00
2023-04-02T05:19:58.911Z,64.90
2023-04-02T05:25:09.441Z,64.80
2023-04-02T05:30:23.008Z,64.90
2023-04-02T05:35:28.608Z,64.80
2023-04-02T05:40:41.491Z,64.60
2023-04-02T05:45:45.303Z,64.60
2023-04-02T05:50:52.854Z,64.60
2023-04-02T05:56:17.880Z,64.60
2023-04-02T06:01:39.212Z,64.40
2023-04-02T06:06:43.990Z,64.40
2023-04-02T06:11:47.905Z,64.50
2023-04-02T06:16:49.778Z,64.50
2023-04-02T06:21:52.737Z,64.40
2023-04-02T06:26:58.023Z,64.40
2023-04-02T06:32:00.718Z,64.50
2023-04-02T06:37:13.281Z,64.40
2023-04-02T06:42:20.769Z,64.40
2023-04-02T06:47:32.166Z,64.40
2023-04-02T06:52:37.229Z,64.30
2023-04-02T06:57:38.808Z,64.30
2023-04-02T07:02:40.919Z,64.40
2023-04-02T07:07:42.500Z,64.30
2023-04-02T07:12:44.320Z,64.20
2023-04-02T07:17:46.717Z,64.10
2023-04-02T07:22:48.444Z,64.10
2023-04-02T07:27:50.891Z,64.00
2023-04-02T07:32:52.492Z,63.90
2023-04-02T07:37:54.101Z,64.00
2023-04-02T07:42:55.849Z,63.90
2023-04-02T07:47:57.856Z,63.80
2023-04-02T07:52:59.677Z,63.70
2023-04-02T07:58:01.908Z,63.70
2023-04-02T08:03:04.210Z,63.70
2023-04-02T08:08:06.123Z,63.90
2023-04-02T08:13:07.964Z,63.90
2023-04-02T08:18:10.345Z,63.80
2023-04-02T08:23:17.031Z,63.80
2023-04-02T08:28:18.793Z,63.70
2023-04-02T08:33:20.793Z,63.70
2023-04-02T08:38:22.604Z,63.70
2023-04-02T08:43:30.977Z,63.50
2023-04-02T08:48:33.904Z,63.30
2023-04-02T08:53:37.578Z,63.10
2023-04-02T08:58:43.002Z,62.70
2023-04-02T09:03:46.561Z,62.60
2023-04-02T09:08:49.193Z,62.20
2023-04-02T09:13:54.223Z,62.00
2023-04-02T09:18:56.014Z,62.00
2023-04-02T09:23:57.996Z,61.80
2023-04-02T09:29:02.669Z,61.40
2023-04-02T09:34:24.260Z,61.60
2023-04-02T09:39:26.390Z,62.20
2023-04-02T09:44:30.327Z,62.50
2023-04-02T09:49:36.687Z,62.60
2023-04-02T09:54:42.557Z,62.30
2023-04-02T09:59:44.180Z,62.10
2023-04-02T10:04:48.115Z,62.20
2023-04-02T10:09:57.516Z,62.20
2023-04-02T10:14:59.976Z,62.00
2023-04-02T10:20:06.468Z,61.90
2023-04-02T10:25:19.728Z,61.70
2023-04-02T10:30:30.608Z,61.80
2023-04-02T10:35:32.277Z,61.90
2023-04-02T10:40:36.114Z,61.70
2023-04-02T10:45:43.912Z,61.70
2023-04-02T10:50:51.843Z,61.70
2023-04-02T10:55:55.567Z,61.70
2023-04-02T11:01:03.080Z,61.70
2023-04-02T11:06:12.134Z,61.80
2023-04-02T11:11:13.761Z,61.80
2023-04-02T11:16:17.690Z,61.90
2023-04-02T11:21:44.884Z,62.30
2023-04-02T11:26:53.762Z,61.80
2023-04-02T11:32:13.809Z,61.80
2023-04-02T11:37:34.156Z,61.80
2023-04-02T11:42:36.729Z,61.60
2023-04-02T11:47:38.371Z,61.70
2023-04-02T11:52:46.080Z,61.70
2023-04-02T11:57:55.715Z,61.90
2023-04-02T12:03:20.744Z,62.00
2023-04-02T12:08:25.593Z,62.00
2023-04-02T12:13:53.703Z,61.70
2023-04-02T12:18:55.923Z,61.80
2023-04-02T12:23:58.820Z,62.20
2023-04-02T12:29:15.920Z,62.20
2023-04-02T12:34:21.810Z,62.40
2023-04-02T12:39:25.843Z,62.40
2023-04-02T12:44:30.091Z,62.60
2023-04-02T12:49:31.834Z,62.60
2023-04-02T12:54:36.358Z,62.60
2023-04-02T12:59:39.184Z,62.80
2023-04-02T13:04:49.964Z,62.80
2023-04-02T13:09:52.548Z,62.90
2023-04-02T13:14:55.891Z,63.10
2023-04-02T13:20:17.691Z,63.10
2023-04-02T13:25:20.959Z,63.20
2023-04-02T13:30:24.486Z,63.30
2023-04-02T13:35:27.258Z,63.30
2023-04-02T13:40:29.017Z,63.30
2023-04-02T13:45:36.405Z,63.30
2023-04-02T13:50:38.401Z,63.40
2023-04-02T13:55:41.490Z,63.40
2023-04-02T14:00:43.361Z,63.50
2023-04-02T14:05:47.322Z,63.60
2023-04-02T14:10:52.219Z,63.60
2023-04-02T14:15:59.548Z,63.70
2023-04-02T14:21:07.059Z,63.70
2023-04-02T14:26:11.515Z,63.70
2023-04-02T14:31:22.384Z,63.80
2023-04-02T14:36:28.893Z,63.90
2023-04-02T14:41:34.871Z,64.00
2023-04-02T14:46:37.627Z,63.90
2023-04-02T14:51:41.618Z,63.90
2023-04-02T14:56:52.207Z,63.90
2023-04-02T15:01:56.930Z,63.90
2023-04-02T15:07:17.812Z,63.90
2023-04-02T15:12:21.701Z,63.90
2023-04-02T15:17:23.632Z,64.00
2023-04-02T15:22:47.636Z,64.00
2023-04-02T15:27:57.193Z,64.00
2023-04-02T15:33:18.743Z,64.20
2023-04-02T15:38:21.791Z,64.20
2023-04-02T15:43:29.051Z,64.20
2023-04-02T15:48:49.003Z,64.30
2023-04-02T15:54:03.422Z,64.30
2023-04-02T15:59:23.577Z,64.30
2023-04-02T16:04:37.805Z,64.30
2023-04-02T16:09:45.470Z,64.30
2023-04-02T16:14:48.774Z,64.20
2023-04-02T16:19:57.039Z,64.30
2023-04-02T16:25:07.566Z,64.50
2023-04-02T16:30:09.282Z,64.50
2023-04-02T16:35:42.300Z,64.30
2023-04-02T16:41:09.305Z,64.20
2023-04-02T16:46:38.760Z,64.20
2023-04-02T16:51:45.998Z,64.20
2023-04-02T16:56:53.519Z,64.10
2023-04-02T17:02:04.738Z,64.10
2023-04-02T17:07:17.751Z,64.10
2023-04-02T17:12:26.513Z,64.20
2023-04-02T17:17:28.232Z,64.10
2023-04-02T17:22:30.305Z,64.00
2023-04-02T17:27:39.335Z,63.90
2023-04-02T17:32:41.056Z,63.90
2023-04-02T17:37:47.087Z,63.80
2023-04-02T17:43:00.730Z,63.80
2023-04-02T17:48:04.499Z,66.10
2023-04-02T17:53:09.099Z,65.30
2023-04-02T17:58:41.937Z,64.40
2023-04-02T18:03:44.066Z,64.10
2023-04-02T18:09:07.196Z,63.60
2023-04-02T18:14:14.670Z,63.30
2023-04-02T18:19:18.139Z,63.10
2023-04-02T18:24:22.664Z,63.20
2023-04-02T18:29:38.538Z,63.30
2023-04-02T18:34:47.840Z,63.60
2023-04-02T18:40:08.381Z,63.80
2023-04-02T18:45:14.807Z,63.40
2023-04-02T18:50:18.389Z,63.60
2023-04-02T18:55:21.803Z,63.80
2023-04-02T19:00:30.954Z,63.80
2023-04-02T19:05:36.121Z,63.70
2023-04-02T19:10:39.184Z,63.70
2023-04-02T19:15:50.858Z,63.80
2023-04-02T19:21:01.862Z,63.90
2023-04-02T19:26:08.638Z,64.10
2023-04-02T19:31:19.359Z,64.30
2023-04-02T19:36:30.063Z,64.30
2023-04-02T19:41:37.527Z,64.20
2023-04-02T19:46:39.492Z,64.20
2023-04-02T19:51:41.114Z,64.10
2023-04-02T19:56:43.357Z,64.00
2023-04-02T20:01:45.214Z,64.00
2023-04-02T20:06:46.881Z,64.00
2023-04-02T20:11:48.960Z,64.10
2023-04-02T20:16:51.370Z,64.20
2023-04-02T20:21:53.079Z,63.80
2023-04-02T20:26:54.953Z,63.50
2023-04-02T20:31:56.543Z,63.10
2023-04-02T20:36:58.119Z,62.80
2023-04-02T20:42:02.711Z,62.50
2023-04-02T20:47:04.330Z,62.40
2023-04-02T20:52:06.203Z,62.30
2023-04-02T20:57:07.827Z,62.20
2023-04-02T21:02:11.060Z,62.20
2023-04-02T21:07:12.632Z,62.00
2023-04-02T21:12:14.277Z,61.80
2023-04-02T21:17:16.110Z,61.70
2023-04-02T21:22:18.027Z,61.70
2023-04-02T21:27:19.703Z,61.50
2023-04-02T21:32:22.313Z,61.40
2023-04-02T21:37:24.165Z,61.40
2023-04-02T21:42:26.188Z,61.40
2023-04-02T21:47:27.895Z,61.40
2023-04-02T21:52:29.557Z,61.30
2023-04-02T21:57:31.216Z,61.20
2023-04-02T22:02:32.983Z,61.10
2023-04-02T22:07:34.748Z,61.00
2023-04-02T22:12:36.977Z,61.00
2023-04-02T22:17:38.730Z,61.00
2023-04-02T22:22:40.408Z,60.90
2023-04-02T22:27:42.030Z,60.90
2023-04-02T22:32:45.261Z,60.70
2023-04-02T22:37:47.895Z,60.60
2023-04-02T22:42:49.739Z,60.60
2023-04-02T22:47:51.608Z,60.40
2023-04-02T22:52:53.275Z,60.30
2023-04-02T22:57:54.923Z,60.30
2023-04-02T23:02:56.780Z,60.30
2023-04-02T23:07:58.396Z,60.20
2023-04-02T23:13:00.204Z,60.10
2023-04-02T23:18:01.993Z,60.00
2023-04-02T23:23:04.695Z,60.00
2023-04-02T23:28:06.432Z,59.80
2023-04-02T23:33:08.341Z,59.80
2023-04-02T23:38:10.022Z,59.70
2023-04-02T23:43:11.617Z,59.60
2023-04-02T23:48:13.320Z,59.60
2023-04-02T23:53:16.726Z,59.60
2023-04-02T23:58:18.306Z,59.50
